sensor_id;sensor_type;location;lat;lon;timestamp;temperature;humidity
32334;DHT22;18810;53.040;8.850;2024-01-10T00:02:04;-4.80;99.90
32334;DHT22;18810;53.040;8.850;2024-01-10T00:19:08;-4.80;99.90
32334;DHT22;18810;53.040;8.850;2024-01-10T00:24:01;-4.80;99.90
32334;DHT22;18810;53.040;8.850;2024-01-10T00:26:27;-4.70;99.90
32334;DHT22;18810;53.040;8.850;2024-01-10T00:43:29;-4.80;99.90
32334;DHT22;18810;53.040;8.850;2024-01-10T01:00:32;-4.70;99.90
32334;DHT22;18810;53.040;8.850;2024-01-10T01:02:58;-4.80;99.90
32334;DHT22;18810;53.040;8.850;2024-01-10T01:15:08;-4.80;99.90
32334;DHT22;18810;53.040;8.850;2024-01-10T01:29:44;-4.70;99.90
32334;DHT22;18810;53.040;8.850;2024-01-10T01:32:10;-4.80;99.90
32334;DHT22;18810;53.040;8.850;2024-01-10T01:39:29;-5.10;99.90
32334;DHT22;18810;53.040;8.850;2024-01-10T01:41:55;-5.10;99.90
32334;DHT22;18810;53.040;8.850;2024-01-10T01:46:47;-5.30;99.90
32334;DHT22;18810;53.040;8.850;2024-01-10T01:49:14;-5.00;99.90
32334;DHT22;18810;53.040;8.850;2024-01-10T01:51:40;-5.00;99.90
32334;DHT22;18810;53.040;8.850;2024-01-10T01:54:07;-5.10;99.90
32334;DHT22;18810;53.040;8.850;2024-01-10T01:56:36;-4.90;99.90
32334;DHT22;18810;53.040;8.850;2024-01-10T01:59:04;-4.80;99.90
32334;DHT22;18810;53.040;8.850;2024-01-10T02:01:30;-5.20;99.90
32334;DHT22;18810;53.040;8.850;2024-01-10T02:03:56;-5.10;99.90
32334;DHT22;18810;53.040;8.850;2024-01-10T02:06:22;-5.10;99.90
32334;DHT22;18810;53.040;8.850;2024-01-10T02:08:48;-5.20;99.90
32334;DHT22;18810;53.040;8.850;2024-01-10T02:13:40;-5.10;99.90
32334;DHT22;18810;53.040;8.850;2024-01-10T02:18:33;-5.00;99.90
32334;DHT22;18810;53.040;8.850;2024-01-10T02:21:00;-5.40;99.90
32334;DHT22;18810;53.040;8.850;2024-01-10T02:23:26;-5.10;99.90
32334;DHT22;18810;53.040;8.850;2024-01-10T02:30:44;-5.10;99.90
32334;DHT22;18810;53.040;8.850;2024-01-10T02:38:03;-5.10;99.90
32334;DHT22;18810;53.040;8.850;2024-01-10T02:40:29;-5.00;99.90
32334;DHT22;18810;53.040;8.850;2024-01-10T02:45:21;-5.10;99.90
32334;DHT22;18810;53.040;8.850;2024-01-10T02:47:46;-5.00;99.90
32334;DHT22;18810;53.040;8.850;2024-01-10T03:04:49;-5.20;99.90
32334;DHT22;18810;53.040;8.850;2024-01-10T03:14:33;-5.30;99.90
32334;DHT22;18810;53.040;8.850;2024-01-10T03:17:00;-5.20;99.90
32334;DHT22;18810;53.040;8.850;2024-01-10T03:21:51;-5.50;99.90
32334;DHT22;18810;53.040;8.850;2024-01-10T03:36:27;-5.20;99.90
32334;DHT22;18810;53.040;8.850;2024-01-10T03:41:20;-5.20;99.90
32334;DHT22;18810;53.040;8.850;2024-01-10T03:43:46;-5.20;99.90
32334;DHT22;18810;53.040;8.850;2024-01-10T03:46:13;-5.10;99.90
32334;DHT22;18810;53.040;8.850;2024-01-10T03:48:39;-5.10;99.90
32334;DHT22;18810;53.040;8.850;2024-01-10T03:56:05;-5.20;99.90
32334;DHT22;18810;53.040;8.850;2024-01-10T03:58:31;-5.20;99.90
32334;DHT22;18810;53.040;8.850;2024-01-10T04:00:57;-5.20;99.90
32334;DHT22;18810;53.040;8.850;2024-01-10T04:10:41;-5.30;99.90
32334;DHT22;18810;53.040;8.850;2024-01-10T04:20:26;-5.20;99.90
32334;DHT22;18810;53.040;8.850;2024-01-10T04:22:51;-5.50;99.90
32334;DHT22;18810;53.040;8.850;2024-01-10T04:25:17;-5.30;99.90
32334;DHT22;18810;53.040;8.850;2024-01-10T04:27:43;-5.10;99.90
32334;DHT22;18810;53.040;8.850;2024-01-10T04:30:09;-5.30;99.90
32334;DHT22;18810;53.040;8.850;2024-01-10T05:09:06;-5.50;99.90
32334;DHT22;18810;53.040;8.850;2024-01-10T05:11:32;-5.50;99.90
32334;DHT22;18810;53.040;8.850;2024-01-10T05:31:03;-5.50;99.90
32334;DHT22;18810;53.040;8.850;2024-01-10T05:40:47;-5.50;99.90
32334;DHT22;18810;53.040;8.850;2024-01-10T05:48:05;-5.60;99.90
32334;DHT22;18810;53.040;8.850;2024-01-10T05:50:32;-5.50;99.90
32334;DHT22;18810;53.040;8.850;2024-01-10T05:52:57;-5.00;99.90
32334;DHT22;18810;53.040;8.850;2024-01-10T05:57:49;-5.50;99.90
32334;DHT22;18810;53.040;8.850;2024-01-10T06:00:15;-5.30;99.90
32334;DHT22;18810;53.040;8.850;2024-01-10T06:02:42;-5.30;99.90
32334;DHT22;18810;53.040;8.850;2024-01-10T06:05:09;-5.30;99.90
32334;DHT22;18810;53.040;8.850;2024-01-10T06:07:38;-5.20;99.90
32334;DHT22;18810;53.040;8.850;2024-01-10T06:10:05;-5.30;99.90
32334;DHT22;18810;53.040;8.850;2024-01-10T06:17:24;-5.30;99.90
32334;DHT22;18810;53.040;8.850;2024-01-10T06:19:50;-5.30;99.90
32334;DHT22;18810;53.040;8.850;2024-01-10T06:24:43;-5.20;99.90
32334;DHT22;18810;53.040;8.850;2024-01-10T06:27:09;-5.30;99.90
32334;DHT22;18810;53.040;8.850;2024-01-10T06:29:35;-5.40;99.90
32334;DHT22;18810;53.040;8.850;2024-01-10T06:32:05;-5.30;99.90
32334;DHT22;18810;53.040;8.850;2024-01-10T06:36:58;-5.50;99.90
32334;DHT22;18810;53.040;8.850;2024-01-10T06:46:45;-5.30;99.90
32334;DHT22;18810;53.040;8.850;2024-01-10T06:49:11;-5.20;99.90
32334;DHT22;18810;53.040;8.850;2024-01-10T06:51:37;-5.40;99.90
32334;DHT22;18810;53.040;8.850;2024-01-10T06:54:04;-5.60;99.90
32334;DHT22;18810;53.040;8.850;2024-01-10T06:56:33;-5.30;99.90
32334;DHT22;18810;53.040;8.850;2024-01-10T06:59:00;-5.40;99.90
32334;DHT22;18810;53.040;8.850;2024-01-10T07:03:53;-5.20;99.90
32334;DHT22;18810;53.040;8.850;2024-01-10T07:08:49;-5.30;99.90
32334;DHT22;18810;53.040;8.850;2024-01-10T07:11:16;-5.40;99.90
32334;DHT22;18810;53.040;8.850;2024-01-10T07:13:42;-5.30;99.90
32334;DHT22;18810;53.040;8.850;2024-01-10T07:16:09;-5.30;99.90
32334;DHT22;18810;53.040;8.850;2024-01-10T07:21:01;-5.30;99.90
32334;DHT22;18810;53.040;8.850;2024-01-10T07:23:26;-5.40;99.90
32334;DHT22;18810;53.040;8.850;2024-01-10T07:25:52;-5.40;99.90
32334;DHT22;18810;53.040;8.850;2024-01-10T07:28:18;-5.40;99.90
32334;DHT22;18810;53.040;8.850;2024-01-10T07:33:11;-5.40;99.90
32334;DHT22;18810;53.040;8.850;2024-01-10T07:38:05;-5.30;99.90
32334;DHT22;18810;53.040;8.850;2024-01-10T07:40:34;-5.20;99.90
32334;DHT22;18810;53.040;8.850;2024-01-10T07:45:26;-5.40;99.90
32334;DHT22;18810;53.040;8.850;2024-01-10T07:50:18;-5.10;99.90
32334;DHT22;18810;53.040;8.850;2024-01-10T07:52:45;-5.20;99.90
32334;DHT22;18810;53.040;8.850;2024-01-10T07:55:14;-5.20;99.90
32334;DHT22;18810;53.040;8.850;2024-01-10T07:57:41;-5.20;99.90
32334;DHT22;18810;53.040;8.850;2024-01-10T08:00:08;-5.20;99.90
32334;DHT22;18810;53.040;8.850;2024-01-10T08:02:38;-5.20;99.90
32334;DHT22;18810;53.040;8.850;2024-01-10T08:07:31;-5.20;99.90
32334;DHT22;18810;53.040;8.850;2024-01-10T08:09:59;-5.30;99.90
32334;DHT22;18810;53.040;8.850;2024-01-10T08:14:51;-5.00;99.90
32334;DHT22;18810;53.040;8.850;2024-01-10T08:17:17;-4.90;99.90
32334;DHT22;18810;53.040;8.850;2024-01-10T08:31:57;-4.50;99.90
32334;DHT22;18810;53.040;8.850;2024-01-10T08:34:23;-4.20;99.90
32334;DHT22;18810;53.040;8.850;2024-01-10T08:36:49;-4.00;99.90
32334;DHT22;18810;53.040;8.850;2024-01-10T08:41:44;-3.60;99.90
32334;DHT22;18810;53.040;8.850;2024-01-10T08:46:37;-3.20;99.90
32334;DHT22;18810;53.040;8.850;2024-01-10T08:49:03;-3.40;99.90
32334;DHT22;18810;53.040;8.850;2024-01-10T08:51:29;-3.30;99.90
32334;DHT22;18810;53.040;8.850;2024-01-10T08:53:54;-3.20;99.90
32334;DHT22;18810;53.040;8.850;2024-01-10T09:01:14;-2.80;99.90
32334;DHT22;18810;53.040;8.850;2024-01-10T09:03:40;-2.60;99.90
32334;DHT22;18810;53.040;8.850;2024-01-10T09:08:33;-2.10;99.90
32334;DHT22;18810;53.040;8.850;2024-01-10T09:18:17;-1.80;99.90
32334;DHT22;18810;53.040;8.850;2024-01-10T09:20:43;-1.60;99.90
32334;DHT22;18810;53.040;8.850;2024-01-10T09:23:09;-1.50;99.90
32334;DHT22;18810;53.040;8.850;2024-01-10T09:28:04;-1.30;99.90
32334;DHT22;18810;53.040;8.850;2024-01-10T09:30:30;-1.20;99.90
32334;DHT22;18810;53.040;8.850;2024-01-10T09:32:55;-1.00;99.90
32334;DHT22;18810;53.040;8.850;2024-01-10T09:35:22;-0.70;99.90
32334;DHT22;18810;53.040;8.850;2024-01-10T09:37:47;-0.40;99.90
32334;DHT22;18810;53.040;8.850;2024-01-10T09:40:15;-0.40;99.90
32334;DHT22;18810;53.040;8.850;2024-01-10T09:42:43;0.00;99.90
32334;DHT22;18810;53.040;8.850;2024-01-10T09:45:10;0.00;99.90
32334;DHT22;18810;53.040;8.850;2024-01-10T09:47:39;0.00;99.90
32334;DHT22;18810;53.040;8.850;2024-01-10T09:50:05;0.10;99.90
32334;DHT22;18810;53.040;8.850;2024-01-10T09:52:52;0.10;99.90
32334;DHT22;18810;53.040;8.850;2024-01-10T09:55:22;0.20;99.90
32334;DHT22;18810;53.040;8.850;2024-01-10T09:57:51;0.40;99.90
32334;DHT22;18810;53.040;8.850;2024-01-10T10:00:17;0.50;99.90
32334;DHT22;18810;53.040;8.850;2024-01-10T10:02:45;0.60;99.90
32334;DHT22;18810;53.040;8.850;2024-01-10T10:05:16;0.80;99.90
32334;DHT22;18810;53.040;8.850;2024-01-10T10:07:51;0.80;99.90
32334;DHT22;18810;53.040;8.850;2024-01-10T10:12:50;0.90;99.90
32334;DHT22;18810;53.040;8.850;2024-01-10T10:15:23;0.80;99.90
32334;DHT22;18810;53.040;8.850;2024-01-10T10:17:50;0.80;99.90
32334;DHT22;18810;53.040;8.850;2024-01-10T10:20:22;1.10;99.90
32334;DHT22;18810;53.040;8.850;2024-01-10T10:23:03;1.10;99.90
32334;DHT22;18810;53.040;8.850;2024-01-10T10:25:31;1.30;99.90
32334;DHT22;18810;53.040;8.850;2024-01-10T10:27:58;1.40;99.90
32334;DHT22;18810;53.040;8.850;2024-01-10T10:30:23;1.50;99.90
32334;DHT22;18810;53.040;8.850;2024-01-10T10:32:49;1.60;99.90
32334;DHT22;18810;53.040;8.850;2024-01-10T10:35:16;1.90;99.90
32334;DHT22;18810;53.040;8.850;2024-01-10T10:37:43;2.10;99.90
32334;DHT22;18810;53.040;8.850;2024-01-10T10:40:09;2.20;99.90
32334;DHT22;18810;53.040;8.850;2024-01-10T10:42:39;2.40;99.90
32334;DHT22;18810;53.040;8.850;2024-01-10T10:45:06;2.50;99.90
32334;DHT22;18810;53.040;8.850;2024-01-10T10:47:36;2.40;99.90
32334;DHT22;18810;53.040;8.850;2024-01-10T10:50:04;2.70;99.90
32334;DHT22;18810;53.040;8.850;2024-01-10T10:52:30;2.80;99.90
32334;DHT22;18810;53.040;8.850;2024-01-10T10:54:58;3.20;99.90
32334;DHT22;18810;53.040;8.850;2024-01-10T10:57:28;3.10;99.90
32334;DHT22;18810;53.040;8.850;2024-01-10T10:59:55;3.30;99.90
32334;DHT22;18810;53.040;8.850;2024-01-10T11:04:49;3.50;99.90
32334;DHT22;18810;53.040;8.850;2024-01-10T11:07:15;3.40;99.90
32334;DHT22;18810;53.040;8.850;2024-01-10T11:09:42;3.50;98.00
32334;DHT22;18810;53.040;8.850;2024-01-10T11:12:26;3.70;97.50
32334;DHT22;18810;53.040;8.850;2024-01-10T11:15:06;4.00;97.60
32334;DHT22;18810;53.040;8.850;2024-01-10T11:17:57;3.80;99.80
32334;DHT22;18810;53.040;8.850;2024-01-10T11:23:28;4.20;96.80
32334;DHT22;18810;53.040;8.850;2024-01-10T11:25:58;4.40;98.60
32334;DHT22;18810;53.040;8.850;2024-01-10T11:28:30;4.20;98.60
32334;DHT22;18810;53.040;8.850;2024-01-10T11:30:58;3.50;98.60
32334;DHT22;18810;53.040;8.850;2024-01-10T11:33:31;3.70;99.30
32334;DHT22;18810;53.040;8.850;2024-01-10T11:36:12;3.60;99.40
32334;DHT22;18810;53.040;8.850;2024-01-10T11:41:36;3.40;99.40
32334;DHT22;18810;53.040;8.850;2024-01-10T11:46:47;3.80;96.10
32334;DHT22;18810;53.040;8.850;2024-01-10T11:49:15;4.10;95.70
32334;DHT22;18810;53.040;8.850;2024-01-10T11:51:55;4.20;95.10
32334;DHT22;18810;53.040;8.850;2024-01-10T11:54:44;4.40;98.10
32334;DHT22;18810;53.040;8.850;2024-01-10T11:57:19;4.20;98.40
32334;DHT22;18810;53.040;8.850;2024-01-10T11:59:46;4.30;95.40
32334;DHT22;18810;53.040;8.850;2024-01-10T12:02:14;4.50;95.50
32334;DHT22;18810;53.040;8.850;2024-01-10T12:04:40;4.60;94.90
32334;DHT22;18810;53.040;8.850;2024-01-10T12:07:07;4.80;97.40
32334;DHT22;18810;53.040;8.850;2024-01-10T12:09:34;4.90;94.60
32334;DHT22;18810;53.040;8.850;2024-01-10T12:12:01;5.10;94.60
32334;DHT22;18810;53.040;8.850;2024-01-10T12:14:27;5.20;93.80
32334;DHT22;18810;53.040;8.850;2024-01-10T12:16:54;5.00;93.30
32334;DHT22;18810;53.040;8.850;2024-01-10T12:19:20;4.80;93.80
32334;DHT22;18810;53.040;8.850;2024-01-10T12:21:45;5.10;93.30
32334;DHT22;18810;53.040;8.850;2024-01-10T12:24:12;5.30;93.30
32334;DHT22;18810;53.040;8.850;2024-01-10T12:26:48;4.90;93.00
32334;DHT22;18810;53.040;8.850;2024-01-10T12:29:18;5.00;92.70
32334;DHT22;18810;53.040;8.850;2024-01-10T12:31:47;5.20;93.00
32334;DHT22;18810;53.040;8.850;2024-01-10T12:34:14;5.50;92.60
32334;DHT22;18810;53.040;8.850;2024-01-10T12:36:41;5.90;91.80
32334;DHT22;18810;53.040;8.850;2024-01-10T12:39:07;6.10;91.50
32334;DHT22;18810;53.040;8.850;2024-01-10T12:41:33;6.40;92.00
32334;DHT22;18810;53.040;8.850;2024-01-10T12:44:00;6.60;91.80
32334;DHT22;18810;53.040;8.850;2024-01-10T12:46:29;6.90;91.40
32334;DHT22;18810;53.040;8.850;2024-01-10T12:49:00;7.00;90.40
32334;DHT22;18810;53.040;8.850;2024-01-10T12:51:27;7.00;89.90
32334;DHT22;18810;53.040;8.850;2024-01-10T12:53:55;6.70;89.30
32334;DHT22;18810;53.040;8.850;2024-01-10T12:56:22;6.60;90.00
32334;DHT22;18810;53.040;8.850;2024-01-10T12:58:47;6.80;90.40
32334;DHT22;18810;53.040;8.850;2024-01-10T13:01:13;6.90;88.80
32334;DHT22;18810;53.040;8.850;2024-01-10T13:03:39;6.40;88.80
32334;DHT22;18810;53.040;8.850;2024-01-10T13:06:05;6.20;90.30
32334;DHT22;18810;53.040;8.850;2024-01-10T13:08:31;5.90;90.70
32334;DHT22;18810;53.040;8.850;2024-01-10T13:10:57;6.00;90.50
32334;DHT22;18810;53.040;8.850;2024-01-10T13:13:25;5.90;90.50
32334;DHT22;18810;53.040;8.850;2024-01-10T13:15:51;6.40;92.90
32334;DHT22;18810;53.040;8.850;2024-01-10T13:18:17;6.40;90.50
32334;DHT22;18810;53.040;8.850;2024-01-10T13:20:44;6.30;90.10
32334;DHT22;18810;53.040;8.850;2024-01-10T13:23:10;6.20;90.30
32334;DHT22;18810;53.040;8.850;2024-01-10T13:25:36;6.30;90.30
32334;DHT22;18810;53.040;8.850;2024-01-10T13:28:06;6.20;90.50
32334;DHT22;18810;53.040;8.850;2024-01-10T13:30:32;6.40;90.30
32334;DHT22;18810;53.040;8.850;2024-01-10T13:33:01;6.30;90.80
32334;DHT22;18810;53.040;8.850;2024-01-10T13:35:27;6.30;90.80
32334;DHT22;18810;53.040;8.850;2024-01-10T13:37:52;6.30;90.80
32334;DHT22;18810;53.040;8.850;2024-01-10T13:40:18;6.10;90.80
32334;DHT22;18810;53.040;8.850;2024-01-10T13:42:49;6.10;91.10
32334;DHT22;18810;53.040;8.850;2024-01-10T13:45:15;5.90;91.30
32334;DHT22;18810;53.040;8.850;2024-01-10T13:47:42;7.20;91.80
32334;DHT22;18810;53.040;8.850;2024-01-10T13:50:08;5.30;92.40
32334;DHT22;18810;53.040;8.850;2024-01-10T13:52:35;5.30;93.00
32334;DHT22;18810;53.040;8.850;2024-01-10T13:55:01;5.20;92.50
32334;DHT22;18810;53.040;8.850;2024-01-10T13:57:30;4.40;95.20
32334;DHT22;18810;53.040;8.850;2024-01-10T13:59:56;4.30;96.50
32334;DHT22;18810;53.040;8.850;2024-01-10T14:02:22;3.90;97.00
32334;DHT22;18810;53.040;8.850;2024-01-10T14:04:48;3.80;97.50
32334;DHT22;18810;53.040;8.850;2024-01-10T14:07:14;3.80;94.80
32334;DHT22;18810;53.040;8.850;2024-01-10T14:09:40;3.50;98.10
32334;DHT22;18810;53.040;8.850;2024-01-10T14:12:06;3.50;95.20
32334;DHT22;18810;53.040;8.850;2024-01-10T14:14:31;3.30;98.60
32334;DHT22;18810;53.040;8.850;2024-01-10T14:16:57;3.00;99.30
32334;DHT22;18810;53.040;8.850;2024-01-10T14:19:23;2.90;96.30
32334;DHT22;18810;53.040;8.850;2024-01-10T14:21:49;2.70;99.90
32334;DHT22;18810;53.040;8.850;2024-01-10T14:24:15;2.90;99.90
32334;DHT22;18810;53.040;8.850;2024-01-10T14:26:41;2.50;99.90
32334;DHT22;18810;53.040;8.850;2024-01-10T14:29:07;2.50;99.90
32334;DHT22;18810;53.040;8.850;2024-01-10T14:31:33;2.30;99.90
32334;DHT22;18810;53.040;8.850;2024-01-10T14:33:59;2.10;99.90
32334;DHT22;18810;53.040;8.850;2024-01-10T14:36:25;2.10;99.90
32334;DHT22;18810;53.040;8.850;2024-01-10T14:38:51;2.00;99.90
32334;DHT22;18810;53.040;8.850;2024-01-10T14:41:16;1.90;99.90
32334;DHT22;18810;53.040;8.850;2024-01-10T14:43:42;2.00;99.90
32334;DHT22;18810;53.040;8.850;2024-01-10T14:46:09;1.50;99.90
32334;DHT22;18810;53.040;8.850;2024-01-10T14:48:35;1.20;99.90
32334;DHT22;18810;53.040;8.850;2024-01-10T14:51:02;1.20;99.90
32334;DHT22;18810;53.040;8.850;2024-01-10T14:53:28;1.00;99.90
32334;DHT22;18810;53.040;8.850;2024-01-10T14:55:54;0.90;99.90
32334;DHT22;18810;53.040;8.850;2024-01-10T15:00:46;0.60;99.90
32334;DHT22;18810;53.040;8.850;2024-01-10T15:03:12;0.50;99.90
32334;DHT22;18810;53.040;8.850;2024-01-10T15:05:40;0.40;99.90
32334;DHT22;18810;53.040;8.850;2024-01-10T15:08:06;0.20;99.90
32334;DHT22;18810;53.040;8.850;2024-01-10T15:10:33;0.30;99.90
32334;DHT22;18810;53.040;8.850;2024-01-10T15:15:25;-0.10;99.90
32334;DHT22;18810;53.040;8.850;2024-01-10T15:20:17;0.00;99.90
32334;DHT22;18810;53.040;8.850;2024-01-10T15:25:09;-0.10;99.90
32334;DHT22;18810;53.040;8.850;2024-01-10T15:27:35;-0.20;99.90
32334;DHT22;18810;53.040;8.850;2024-01-10T15:30:02;-0.20;99.90
32334;DHT22;18810;53.040;8.850;2024-01-10T15:32:30;-0.20;99.90
32334;DHT22;18810;53.040;8.850;2024-01-10T15:34:55;-0.20;99.90
32334;DHT22;18810;53.040;8.850;2024-01-10T15:37:21;-0.30;99.90
32334;DHT22;18810;53.040;8.850;2024-01-10T15:44:39;-0.50;99.90
32334;DHT22;18810;53.040;8.850;2024-01-10T15:47:05;-0.90;99.90
32334;DHT22;18810;53.040;8.850;2024-01-10T15:49:32;-0.60;99.90
32334;DHT22;18810;53.040;8.850;2024-01-10T15:51:58;-0.70;99.90
32334;DHT22;18810;53.040;8.850;2024-01-10T15:54:23;-0.50;99.90
32334;DHT22;18810;53.040;8.850;2024-01-10T15:56:49;-0.80;99.90
32334;DHT22;18810;53.040;8.850;2024-01-10T15:59:15;-0.90;99.90
32334;DHT22;18810;53.040;8.850;2024-01-10T16:01:41;-0.90;99.90
32334;DHT22;18810;53.040;8.850;2024-01-10T16:04:07;-1.00;99.90
32334;DHT22;18810;53.040;8.850;2024-01-10T16:06:33;-1.10;99.90
32334;DHT22;18810;53.040;8.850;2024-01-10T16:09:00;-1.00;99.90
32334;DHT22;18810;53.040;8.850;2024-01-10T16:11:26;-1.10;99.90
32334;DHT22;18810;53.040;8.850;2024-01-10T16:16:27;-1.20;99.90
32334;DHT22;18810;53.040;8.850;2024-01-10T16:18:53;-1.20;99.90
32334;DHT22;18810;53.040;8.850;2024-01-10T16:21:22;-1.30;99.90
32334;DHT22;18810;53.040;8.850;2024-01-10T16:23:47;-1.30;99.90
32334;DHT22;18810;53.040;8.850;2024-01-10T16:26:13;-1.30;99.90
32334;DHT22;18810;53.040;8.850;2024-01-10T16:28:39;-1.20;99.90
32334;DHT22;18810;53.040;8.850;2024-01-10T16:31:05;-1.30;99.90
32334;DHT22;18810;53.040;8.850;2024-01-10T16:33:31;-1.20;99.90
32334;DHT22;18810;53.040;8.850;2024-01-10T16:35:56;-1.10;99.90
32334;DHT22;18810;53.040;8.850;2024-01-10T16:45:40;-1.70;99.90
32334;DHT22;18810;53.040;8.850;2024-01-10T16:50:34;-1.70;99.90
32334;DHT22;18810;53.040;8.850;2024-01-10T16:53:00;-1.80;99.90
32334;DHT22;18810;53.040;8.850;2024-01-10T16:55:27;-1.70;99.90
32334;DHT22;18810;53.040;8.850;2024-01-10T16:57:53;-1.70;99.90
32334;DHT22;18810;53.040;8.850;2024-01-10T17:00:20;-1.80;99.90
32334;DHT22;18810;53.040;8.850;2024-01-10T17:02:46;-1.80;99.90
32334;DHT22;18810;53.040;8.850;2024-01-10T17:05:12;-1.80;99.90
32334;DHT22;18810;53.040;8.850;2024-01-10T17:07:38;-2.00;99.90
32334;DHT22;18810;53.040;8.850;2024-01-10T17:10:05;-2.10;99.90
32334;DHT22;18810;53.040;8.850;2024-01-10T17:14:58;-2.10;99.90
32334;DHT22;18810;53.040;8.850;2024-01-10T17:17:24;-2.30;99.90
32334;DHT22;18810;53.040;8.850;2024-01-10T17:19:50;-2.20;99.90
32334;DHT22;18810;53.040;8.850;2024-01-10T17:27:08;-2.30;99.90
32334;DHT22;18810;53.040;8.850;2024-01-10T17:29:34;-2.40;99.90
32334;DHT22;18810;53.040;8.850;2024-01-10T17:32:00;-2.10;99.90
32334;DHT22;18810;53.040;8.850;2024-01-10T17:34:28;-2.40;99.90
32334;DHT22;18810;53.040;8.850;2024-01-10T17:36:55;-2.40;99.90
32334;DHT22;18810;53.040;8.850;2024-01-10T17:39:21;-2.40;99.90
32334;DHT22;18810;53.040;8.850;2024-01-10T17:41:46;-2.50;99.90
32334;DHT22;18810;53.040;8.850;2024-01-10T17:44:13;-2.60;99.90
32334;DHT22;18810;53.040;8.850;2024-01-10T17:46:39;-2.60;99.90
32334;DHT22;18810;53.040;8.850;2024-01-10T17:49:05;-2.60;99.90
32334;DHT22;18810;53.040;8.850;2024-01-10T17:51:31;-2.60;99.90
32334;DHT22;18810;53.040;8.850;2024-01-10T17:53:57;-2.60;99.90
32334;DHT22;18810;53.040;8.850;2024-01-10T17:56:23;-2.70;99.90
32334;DHT22;18810;53.040;8.850;2024-01-10T17:58:49;-2.60;99.90
32334;DHT22;18810;53.040;8.850;2024-01-10T18:01:14;-2.70;99.90
32334;DHT22;18810;53.040;8.850;2024-01-10T18:03:40;-2.70;99.90
32334;DHT22;18810;53.040;8.850;2024-01-10T18:10:58;-2.80;99.90
32334;DHT22;18810;53.040;8.850;2024-01-10T18:32:53;-3.00;99.90
32334;DHT22;18810;53.040;8.850;2024-01-10T18:35:21;-3.00;99.90
32334;DHT22;18810;53.040;8.850;2024-01-10T18:37:47;-3.00;99.90
32334;DHT22;18810;53.040;8.850;2024-01-10T18:45:08;-1.80;99.90
32334;DHT22;18810;53.040;8.850;2024-01-10T18:47:34;-3.10;99.90
32334;DHT22;18810;53.040;8.850;2024-01-10T18:54:52;-3.20;99.90
32334;DHT22;18810;53.040;8.850;2024-01-10T18:57:18;-3.30;99.90
32334;DHT22;18810;53.040;8.850;2024-01-10T18:59:45;-3.30;99.90
32334;DHT22;18810;53.040;8.850;2024-01-10T19:02:10;-3.30;99.90
32334;DHT22;18810;53.040;8.850;2024-01-10T19:04:37;-3.50;99.90
32334;DHT22;18810;53.040;8.850;2024-01-10T19:07:03;-3.40;99.90
32334;DHT22;18810;53.040;8.850;2024-01-10T19:11:56;-3.50;99.90
32334;DHT22;18810;53.040;8.850;2024-01-10T19:14:22;-3.60;99.90
32334;DHT22;18810;53.040;8.850;2024-01-10T19:16:48;-3.50;99.90
32334;DHT22;18810;53.040;8.850;2024-01-10T19:19:17;-3.50;99.90
32334;DHT22;18810;53.040;8.850;2024-01-10T19:21:44;-3.50;99.90
32334;DHT22;18810;53.040;8.850;2024-01-10T19:33:54;-3.60;99.90
32334;DHT22;18810;53.040;8.850;2024-01-10T19:36:20;-3.60;99.90
32334;DHT22;18810;53.040;8.850;2024-01-10T19:38:46;-3.70;99.90
32334;DHT22;18810;53.040;8.850;2024-01-10T19:41:22;-4.10;99.90
32334;DHT22;18810;53.040;8.850;2024-01-10T19:43:49;-3.70;99.90
32334;DHT22;18810;53.040;8.850;2024-01-10T19:46:15;-3.80;99.90
32334;DHT22;18810;53.040;8.850;2024-01-10T19:48:41;-3.80;99.90
32334;DHT22;18810;53.040;8.850;2024-01-10T19:51:07;-3.80;99.90
32334;DHT22;18810;53.040;8.850;2024-01-10T19:55:59;-3.80;99.90
32334;DHT22;18810;53.040;8.850;2024-01-10T19:58:25;-3.90;99.90
32334;DHT22;18810;53.040;8.850;2024-01-10T20:00:51;-3.90;99.90
32334;DHT22;18810;53.040;8.850;2024-01-10T20:03:17;-4.00;99.90
32334;DHT22;18810;53.040;8.850;2024-01-10T20:05:43;-3.90;99.90
32334;DHT22;18810;53.040;8.850;2024-01-10T20:08:09;-4.10;99.90
32334;DHT22;18810;53.040;8.850;2024-01-10T20:10:36;-4.00;99.90
32334;DHT22;18810;53.040;8.850;2024-01-10T20:13:05;-4.00;99.90
32334;DHT22;18810;53.040;8.850;2024-01-10T20:15:32;-3.90;99.90
32334;DHT22;18810;53.040;8.850;2024-01-10T20:17:58;-4.00;99.90
32334;DHT22;18810;53.040;8.850;2024-01-10T20:20:24;-4.00;99.90
32334;DHT22;18810;53.040;8.850;2024-01-10T20:22:50;-4.00;99.90
32334;DHT22;18810;53.040;8.850;2024-01-10T20:27:42;-4.10;99.90
32334;DHT22;18810;53.040;8.850;2024-01-10T20:30:08;-4.00;99.90
32334;DHT22;18810;53.040;8.850;2024-01-10T20:32:34;-4.00;99.90
32334;DHT22;18810;53.040;8.850;2024-01-10T20:35:00;-4.10;99.90
32334;DHT22;18810;53.040;8.850;2024-01-10T20:37:26;-4.10;99.90
32334;DHT22;18810;53.040;8.850;2024-01-10T20:39:52;-4.10;99.90
32334;DHT22;18810;53.040;8.850;2024-01-10T20:42:17;-4.10;99.90
32334;DHT22;18810;53.040;8.850;2024-01-10T20:47:12;-4.20;99.90
32334;DHT22;18810;53.040;8.850;2024-01-10T20:52:07;-4.40;99.90
32334;DHT22;18810;53.040;8.850;2024-01-10T20:54:33;-4.40;99.90
32334;DHT22;18810;53.040;8.850;2024-01-10T21:06:44;-4.10;99.90
32334;DHT22;18810;53.040;8.850;2024-01-10T21:11:37;-4.30;99.90
32334;DHT22;18810;53.040;8.850;2024-01-10T21:14:03;-4.30;99.90
32334;DHT22;18810;53.040;8.850;2024-01-10T21:16:29;-4.30;99.90
32334;DHT22;18810;53.040;8.850;2024-01-10T21:21:22;-4.40;99.90
32334;DHT22;18810;53.040;8.850;2024-01-10T21:23:50;-4.40;99.90
32334;DHT22;18810;53.040;8.850;2024-01-10T21:26:16;-4.40;99.90
32334;DHT22;18810;53.040;8.850;2024-01-10T21:28:42;-4.40;99.90
32334;DHT22;18810;53.040;8.850;2024-01-10T21:31:07;-4.50;99.90
32334;DHT22;18810;53.040;8.850;2024-01-10T21:35:59;-4.50;99.90
32334;DHT22;18810;53.040;8.850;2024-01-10T21:38:27;-4.50;99.90
32334;DHT22;18810;53.040;8.850;2024-01-10T21:43:18;-4.60;99.90
32334;DHT22;18810;53.040;8.850;2024-01-10T21:53:03;-4.70;99.90
32334;DHT22;18810;53.040;8.850;2024-01-10T22:10:06;-4.70;99.90
32334;DHT22;18810;53.040;8.850;2024-01-10T22:14:58;-4.80;99.90
32334;DHT22;18810;53.040;8.850;2024-01-10T22:17:24;-3.90;99.90
32334;DHT22;18810;53.040;8.850;2024-01-10T22:19:50;-4.60;99.90
32334;DHT22;18810;53.040;8.850;2024-01-10T22:22:18;-4.90;99.90
32334;DHT22;18810;53.040;8.850;2024-01-10T22:24:44;-4.90;99.90
32334;DHT22;18810;53.040;8.850;2024-01-10T22:27:10;-4.90;99.90
32334;DHT22;18810;53.040;8.850;2024-01-10T22:29:38;-4.90;99.90
32334;DHT22;18810;53.040;8.850;2024-01-10T22:32:04;-5.00;99.90
32334;DHT22;18810;53.040;8.850;2024-01-10T22:34:30;-4.90;99.90
32334;DHT22;18810;53.040;8.850;2024-01-10T22:36:56;-4.90;99.90
32334;DHT22;18810;53.040;8.850;2024-01-10T22:44:14;-4.90;99.90
32334;DHT22;18810;53.040;8.850;2024-01-10T22:46:43;-4.90;99.90
32334;DHT22;18810;53.040;8.850;2024-01-10T22:49:08;-5.00;99.90
32334;DHT22;18810;53.040;8.850;2024-01-10T22:54:00;-5.10;99.90
32334;DHT22;18810;53.040;8.850;2024-01-10T23:01:19;-5.10;99.90
32334;DHT22;18810;53.040;8.850;2024-01-10T23:03:46;-5.20;99.90
32334;DHT22;18810;53.040;8.850;2024-01-10T23:13:30;-5.20;99.90